DWD Radarbild

   
[Quelle: ADDS]
METAR
EDLP 230120Z VRB02KT CAVOK 17/14 Q1023 =
EDLP 222300Z 2300/2324 VRB03KT CAVOK
TAF
EDLP 222300Z 2300/2324 VRB03KT CAVOK =
   
   

Meine WettercamWettercam aus Bielefeld Senne - Blickrichtung Süd-Ostjede Min. ein neues Bild

   
Moon phase
Phase:
Abnehmend

Mondphase:
69%

Alter:
20 Tage

Entfernung:
250,234 Km

Zeit:
03:41:32

Datum:
23-07-2019

   
<<  Jul 2019  >>
 Mo  Di  Mi  Do  Fr  Sa  So 
  1  2  3  4  5  6  7
  8  91011121314
15161718192021
22232425262728
293031